Time;durP1;ratioP1;P1;durP2;ratioP2;P2;SDS_P1;SDS_P2;PMS_P1;PMS_P2;Temp;Humidity;BMP_temperature;BMP_pressure;BME280_temperature;BME280_humidity;BME280_pressure;Samples;Min_cycle;Max_cycle;Signal;HPM_P1;HPM_P2
2023/08/06 00:02:17;;;;;;;6.53;1.70;;;16.60;99.90;;;;;;5140262;27;20197;-83
2023/08/06 00:04:50;;;;;;;8.48;1.52;;;16.60;99.90;;;;;;5145452;27;20183;-83
2023/08/06 00:07:21;;;;;;;6.75;1.95;;;16.70;99.90;;;;;;5137426;27;20197;-83
2023/08/06 00:09:52;;;;;;;7.57;1.50;;;16.60;99.90;;;;;;5138773;27;20223;-85
2023/08/06 00:12:22;;;;;;;5.80;1.80;;;16.60;99.90;;;;;;5155498;27;20309;-83
2023/08/06 00:14:55;;;;;;;9.23;1.95;;;16.50;99.90;;;;;;5155875;27;20222;-83
2023/08/06 00:17:26;;;;;;;7.97;1.98;;;16.50;99.90;;;;;;5155092;27;20232;-83
2023/08/06 00:20:04;;;;;;;6.10;1.60;;;16.60;99.90;;;;;;5154645;27;20201;-85
2023/08/06 00:22:35;;;;;;;5.90;1.52;;;16.70;99.90;;;;;;5139737;27;20214;-84
2023/08/06 00:25:06;;;;;;;7.18;1.98;;;16.70;99.90;;;;;;5151398;27;20196;-85
2023/08/06 00:27:39;;;;;;;11.27;2.20;;;16.80;99.90;;;;;;5154971;27;20648;-84
2023/08/06 00:30:10;;;;;;;10.23;2.05;;;16.80;99.90;;;;;;5155931;27;20197;-85
2023/08/06 00:32:41;;;;;;;7.93;1.80;;;16.70;99.90;;;;;;5156157;27;20727;-86
2023/08/06 00:35:14;;;;;;;6.03;2.15;;;16.80;99.90;;;;;;5155778;27;20197;-84
2023/08/06 00:37:45;;;;;;;6.65;1.73;;;16.80;99.90;;;;;;5150863;27;20234;-85
2023/08/06 00:40:15;;;;;;;9.13;1.83;;;16.80;99.90;;;;;;5134869;27;20744;-85
2023/08/06 00:42:46;;;;;;;6.55;1.67;;;16.90;99.90;;;;;;5134637;27;20213;-84
2023/08/06 00:45:17;;;;;;;7.75;1.85;;;16.90;99.90;;;;;;5135126;27;20534;-85
2023/08/06 00:47:48;;;;;;;5.45;1.40;;;17.00;99.90;;;;;;5135066;27;20194;-85
2023/08/06 00:50:22;;;;;;;4.05;1.20;;;17.00;99.90;;;;;;5134320;27;20194;-84
2023/08/06 00:52:53;;;;;;;7.93;1.80;;;17.00;99.90;;;;;;5135708;27;20280;-84
2023/08/06 00:55:24;;;;;;;5.80;1.40;;;17.00;99.90;;;;;;5152011;27;20197;-84
2023/08/06 00:57:56;;;;;;;7.38;1.88;;;17.00;99.90;;;;;;5134035;27;20645;-84
2023/08/06 01:00:27;;;;;;;6.43;1.85;;;17.10;99.90;;;;;;5134187;27;20586;-83
2023/08/06 01:02:59;;;;;;;5.45;1.55;;;17.20;99.90;;;;;;5134341;27;20241;-83
2023/08/06 01:05:33;;;;;;;7.53;2.00;;;17.30;99.90;;;;;;5142482;27;20695;-85
2023/08/06 01:08:15;;;;;;;4.18;1.42;;;17.30;99.90;;;;;;5153032;27;20554;-84
2023/08/06 01:11:00;;;;;;;6.43;1.80;;;17.40;99.90;;;;;;5138811;27;20201;-83
2023/08/06 01:13:40;;;;;;;9.00;1.92;;;17.40;99.90;;;;;;5131447;27;20197;-83
2023/08/06 01:16:13;;;;;;;3.63;1.20;;;17.40;99.90;;;;;;5146757;27;20280;-84
2023/08/06 01:18:46;;;;;;;7.35;1.60;;;17.40;99.90;;;;;;5117288;27;20226;-82
2023/08/06 01:21:19;;;;;;;11.23;2.05;;;17.40;99.90;;;;;;5135505;27;20216;-84
2023/08/06 01:23:50;;;;;;;6.32;1.60;;;17.30;99.90;;;;;;5139444;27;20229;-83
2023/08/06 01:26:29;;;;;;;4.53;1.38;;;17.30;99.90;;;;;;5134780;27;20193;-84
2023/08/06 01:29:07;;;;;;;6.43;2.00;;;17.40;99.90;;;;;;5134131;27;20281;-84
2023/08/06 01:31:40;;;;;;;8.38;1.95;;;17.40;99.90;;;;;;5137122;27;20190;-84
2023/08/06 01:34:17;;;;;;;7.28;1.63;;;17.50;99.90;;;;;;5133625;27;20213;-86
2023/08/06 01:36:50;;;;;;;6.05;1.75;;;17.60;99.90;;;;;;5132772;27;20194;-84
2023/08/06 01:39:21;;;;;;;4.95;1.63;;;17.70;99.90;;;;;;5133791;27;20235;-84
2023/08/06 01:41:52;;;;;;;6.95;1.92;;;17.60;99.90;;;;;;5133155;27;20409;-83
2023/08/06 01:44:23;;;;;;;5.55;1.50;;;17.60;99.90;;;;;;5135685;27;20240;-84
2023/08/06 01:46:54;;;;;;;6.95;1.58;;;17.60;99.90;;;;;;5146864;27;20186;-84
2023/08/06 01:49:24;;;;;;;9.40;1.90;;;17.60;99.90;;;;;;5143548;27;20201;-83
2023/08/06 01:51:58;;;;;;;6.95;1.95;;;17.60;99.90;;;;;;5154258;27;20195;-82
2023/08/06 01:54:29;;;;;;;6.28;1.60;;;17.60;99.90;;;;;;5137786;27;20200;-83
2023/08/06 01:57:00;;;;;;;8.27;1.60;;;17.60;99.90;;;;;;5133089;27;20186;-84
2023/08/06 01:59:31;;;;;;;5.65;1.70;;;17.70;99.90;;;;;;5133779;27;20209;-83
2023/08/06 02:02:01;;;;;;;8.05;1.67;;;17.80;99.90;;;;;;5133596;27;20198;-83
2023/08/06 02:04:32;;;;;;;7.22;1.65;;;17.70;99.90;;;;;;5132677;27;20221;-84
2023/08/06 02:07:06;;;;;;;7.35;1.75;;;17.70;99.90;;;;;;5143130;27;20204;-85
2023/08/06 02:09:37;;;;;;;5.18;1.33;;;17.80;99.90;;;;;;5153090;27;20196;-84
2023/08/06 02:12:09;;;;;;;5.97;1.50;;;17.80;99.90;;;;;;5154063;27;20677;-84
2023/08/06 02:14:40;;;;;;;6.03;1.50;;;17.90;99.90;;;;;;5150271;27;20186;-84
2023/08/06 02:17:11;;;;;;;12.13;2.13;;;18.00;99.90;;;;;;5132368;27;20226;-84
2023/08/06 02:19:43;;;;;;;6.13;1.83;;;18.00;99.90;;;;;;5149657;27;20193;-85
2023/08/06 02:22:15;;;;;;;5.75;1.90;;;18.00;99.90;;;;;;5150631;27;20206;-84
2023/08/06 02:24:46;;;;;;;5.32;1.83;;;18.10;99.90;;;;;;5132395;27;20232;-84
2023/08/06 02:27:17;;;;;;;4.88;1.63;;;18.10;99.90;;;;;;5131714;27;20232;-83
2023/08/06 02:29:48;;;;;;;6.82;1.60;;;18.00;99.90;;;;;;5132356;27;20194;-84
2023/08/06 02:32:18;;;;;;;4.28;1.20;;;18.00;99.90;;;;;;5132369;27;20288;-84
2023/08/06 02:34:49;;;;;;;5.47;1.58;;;18.10;99.90;;;;;;5131658;27;20228;-84
2023/08/06 02:37:22;;;;;;;4.75;1.27;;;18.10;99.90;;;;;;5132525;27;20397;-86
2023/08/06 02:39:53;;;;;;;5.53;1.30;;;18.10;99.90;;;;;;5132416;27;20197;-85
2023/08/06 02:42:25;;;;;;;4.18;1.48;;;18.10;99.90;;;;;;5132010;27;20224;-85
2023/08/06 02:44:57;;;;;;;4.55;1.35;;;18.10;99.90;;;;;;5133248;27;20583;-84
2023/08/06 02:47:28;;;;;;;7.22;2.00;;;18.20;99.90;;;;;;5134974;27;20564;-83
2023/08/06 02:49:58;;;;;;;6.90;1.50;;;18.10;99.90;;;;;;5132826;27;20201;-84
2023/08/06 02:52:31;;;;;;;8.05;1.70;;;18.10;99.90;;;;;;5132449;27;20206;-83
2023/08/06 02:55:02;;;;;;;5.88;1.60;;;18.20;99.90;;;;;;5132871;28;20209;-84
2023/08/06 02:57:33;;;;;;;4.78;1.50;;;18.20;99.90;;;;;;5132922;28;20194;-83
2023/08/06 03:00:04;;;;;;;7.88;2.33;;;18.20;99.90;;;;;;5132573;27;20200;-84
2023/08/06 03:02:35;;;;;;;7.03;1.75;;;18.10;99.90;;;;;;5133305;27;20204;-84
2023/08/06 03:05:07;;;;;;;4.85;1.77;;;18.10;99.90;;;;;;5132590;28;20584;-85
2023/08/06 03:07:40;;;;;;;5.47;1.70;;;18.00;99.90;;;;;;5139957;27;20190;-85
2023/08/06 03:10:13;;;;;;;5.70;1.70;;;18.10;99.90;;;;;;5132418;27;20202;-84
2023/08/06 03:12:44;;;;;;;4.43;1.60;;;17.90;99.90;;;;;;5131659;27;20261;-85
2023/08/06 03:15:14;;;;;;;8.07;2.13;;;17.90;99.90;;;;;;5145779;27;20713;-85
2023/08/06 03:17:46;;;;;;;8.57;1.80;;;17.70;99.90;;;;;;5131640;27;20225;-85
2023/08/06 03:20:17;;;;;;;5.20;1.70;;;17.80;99.90;;;;;;5141969;27;20197;-86
2023/08/06 03:22:49;;;;;;;4.53;1.52;;;17.80;99.90;;;;;;5152518;27;20217;-85
2023/08/06 03:25:20;;;;;;;8.70;2.75;;;17.80;99.90;;;;;;5150223;27;20232;-84
2023/08/06 03:27:51;;;;;;;5.78;1.98;;;17.90;99.90;;;;;;5133156;27;20201;-84
2023/08/06 03:30:22;;;;;;;7.57;1.73;;;17.90;99.90;;;;;;5131888;28;20194;-84
2023/08/06 03:32:53;;;;;;;4.45;1.30;;;17.90;99.90;;;;;;5137888;27;20209;-85
2023/08/06 03:35:23;;;;;;;7.78;1.50;;;17.90;99.90;;;;;;5143455;27;20201;-84
2023/08/06 03:37:57;;;;;;;4.05;1.60;;;17.90;99.90;;;;;;5151731;27;20170;-84
2023/08/06 03:40:28;;;;;;;3.00;1.48;;;17.90;99.90;;;;;;5157295;27;20208;-84
2023/08/06 03:42:59;;;;;;;6.40;1.90;;;17.90;99.90;;;;;;5155130;27;20177;-85
2023/08/06 03:45:30;;;;;;;6.47;1.65;;;17.90;99.90;;;;;;5147705;27;20691;-84
2023/08/06 03:48:00;;;;;;;5.93;1.48;;;18.00;99.90;;;;;;5159445;27;20211;-85
2023/08/06 03:50:31;;;;;;;5.15;1.25;;;18.00;99.90;;;;;;5152785;27;20230;-83
2023/08/06 03:53:04;;;;;;;4.80;1.35;;;18.10;99.90;;;;;;5137222;27;20189;-84
2023/08/06 03:55:35;;;;;;;4.43;1.42;;;18.10;99.90;;;;;;5138143;27;20194;-84
2023/08/06 03:58:05;;;;;;;3.83;1.10;;;18.20;99.90;;;;;;5137709;27;20664;-84
2023/08/06 04:00:36;;;;;;;4.18;1.20;;;18.20;99.90;;;;;;5137447;27;20212;-85
2023/08/06 04:03:07;;;;;;;6.15;1.70;;;18.30;99.90;;;;;;5145507;27;20193;-85
2023/08/06 04:05:38;;;;;;;7.13;1.50;;;18.20;99.90;;;;;;5148056;27;20233;-83
2023/08/06 04:08:11;;;;;;;4.43;1.30;;;18.20;99.90;;;;;;5147026;27;20197;-84
2023/08/06 04:10:41;;;;;;;5.60;1.40;;;18.20;99.90;;;;;;5135756;27;20300;-84
2023/08/06 04:13:12;;;;;;;5.70;1.67;;;18.20;99.90;;;;;;5145097;27;20540;-85
2023/08/06 04:15:43;;;;;;;3.50;1.33;;;18.10;99.90;;;;;;5156662;27;20189;-85
2023/08/06 04:18:13;;;;;;;7.30;1.45;;;18.20;99.90;;;;;;5155536;27;20232;-84
2023/08/06 04:20:49;;;;;;;2.88;1.20;;;18.10;99.90;;;;;;5151874;27;20292;-85
2023/08/06 04:23:21;;;;;;;10.63;2.53;;;18.10;99.90;;;;;;5135590;27;20270;-85
2023/08/06 04:25:52;;;;;;;3.95;1.30;;;18.10;99.90;;;;;;5135633;27;20587;-84
2023/08/06 04:28:24;;;;;;;5.30;1.90;;;18.10;99.90;;;;;;5117569;27;20217;-85
2023/08/06 04:30:55;;;;;;;6.80;2.00;;;18.00;99.90;;;;;;5142490;27;20571;-84
2023/08/06 04:33:25;;;;;;;5.55;1.65;;;17.90;99.90;;;;;;5138430;27;20186;-84
2023/08/06 04:35:58;;;;;;;4.47;1.30;;;17.90;99.90;;;;;;5153095;27;20246;-86
2023/08/06 04:38:32;;;;;;;5.93;1.50;;;17.90;99.90;;;;;;5134637;27;20190;-84
2023/08/06 04:41:04;;;;;;;4.80;1.50;;;18.00;99.90;;;;;;5134602;27;20194;-85
2023/08/06 04:43:37;;;;;;;3.72;1.35;;;17.90;99.90;;;;;;5137120;27;20198;-85
2023/08/06 04:46:09;;;;;;;5.05;1.33;;;18.00;99.90;;;;;;5138414;27;20198;-87
2023/08/06 04:48:41;;;;;;;6.03;1.50;;;18.00;99.90;;;;;;5143352;27;20194;-89
2023/08/06 04:51:13;;;;;;;8.82;2.30;;;18.00;99.90;;;;;;5149544;27;20193;-87
2023/08/06 04:53:46;;;;;;;5.78;1.50;;;17.80;99.90;;;;;;5134655;27;20204;-88
2023/08/06 04:56:16;;;;;;;4.72;1.20;;;17.70;99.90;;;;;;5137100;27;20199;-86
2023/08/06 04:58:47;;;;;;;5.57;1.63;;;17.70;99.90;;;;;;5137427;27;20572;-86
2023/08/06 05:01:18;;;;;;;4.97;1.52;;;17.70;99.90;;;;;;5142389;27;20264;-85
2023/08/06 05:03:49;;;;;;;5.43;1.40;;;17.70;99.90;;;;;;5154167;27;20196;-85
2023/08/06 05:06:20;;;;;;;4.00;1.23;;;17.60;99.90;;;;;;5152117;27;20199;-84
2023/08/06 05:08:53;;;;;;;5.45;2.58;;;17.60;99.90;;;;;;5155864;27;20225;-83
2023/08/06 05:11:24;;;;;;;4.43;1.42;;;17.60;99.90;;;;;;5155470;27;20211;-84
2023/08/06 05:13:55;;;;;;;5.78;1.42;;;17.60;99.90;;;;;;5155017;27;20211;-84
2023/08/06 05:16:26;;;;;;;4.72;1.38;;;17.60;99.90;;;;;;5153923;27;20186;-83
2023/08/06 05:18:57;;;;;;;5.85;1.52;;;17.70;99.90;;;;;;5138670;27;20236;-84
2023/08/06 05:21:27;;;;;;;4.60;1.20;;;17.60;99.90;;;;;;5133522;27;20218;-85
2023/08/06 05:24:02;;;;;;;3.97;1.17;;;17.60;99.90;;;;;;5133680;27;20257;-85
2023/08/06 05:26:33;;;;;;;5.50;1.40;;;17.60;99.90;;;;;;5134776;27;20201;-85
2023/08/06 05:29:05;;;;;;;2.40;0.82;;;17.60;99.90;;;;;;5134033;27;20212;-85
2023/08/06 05:31:38;;;;;;;3.00;1.55;;;17.60;99.90;;;;;;5139239;27;20192;-86
2023/08/06 05:34:09;;;;;;;3.22;1.23;;;17.60;99.90;;;;;;5141558;27;20194;-85
2023/08/06 05:36:40;;;;;;;3.55;1.13;;;17.60;99.90;;;;;;5153565;27;20189;-86
2023/08/06 05:39:14;;;;;;;3.47;1.17;;;17.60;99.90;;;;;;5156288;27;20212;-84
2023/08/06 05:41:45;;;;;;;3.10;1.00;;;17.60;99.90;;;;;;5155319;27;20197;-85
2023/08/06 05:44:17;;;;;;;5.07;1.20;;;17.60;99.90;;;;;;5144454;27;20223;-85
2023/08/06 05:46:48;;;;;;;4.78;1.02;;;17.60;99.90;;;;;;5154432;27;20196;-84
2023/08/06 05:49:22;;;;;;;3.75;1.05;;;17.60;99.90;;;;;;5152493;27;20190;-85
2023/08/06 05:51:53;;;;;;;3.58;1.23;;;17.60;99.90;;;;;;5136782;27;20205;-85
2023/08/06 05:54:27;;;;;;;6.43;1.10;;;17.60;99.90;;;;;;5134029;27;20197;-85
2023/08/06 05:56:58;;;;;;;4.85;1.33;;;17.60;99.90;;;;;;5149395;27;20253;-83
2023/08/06 05:59:29;;;;;;;2.42;0.90;;;17.60;99.90;;;;;;5152635;27;20235;-84
2023/08/06 06:01:59;;;;;;;3.78;0.90;;;17.60;99.90;;;;;;5149629;27;20197;-83
2023/08/06 06:04:31;;;;;;;2.83;1.00;;;17.60;99.90;;;;;;5138168;27;20297;-84
2023/08/06 06:07:02;;;;;;;3.13;0.95;;;17.60;99.90;;;;;;5131954;27;20676;-83
2023/08/06 06:09:34;;;;;;;2.03;0.75;;;17.60;99.90;;;;;;5133289;27;20676;-84
2023/08/06 06:12:05;;;;;;;3.97;1.08;;;17.60;99.90;;;;;;5134050;27;20200;-84
2023/08/06 06:14:37;;;;;;;3.42;1.00;;;17.50;99.90;;;;;;5136948;27;20284;-84
2023/08/06 06:17:08;;;;;;;1.92;0.85;;;17.50;99.90;;;;;;5137074;27;20252;-84
2023/08/06 06:19:39;;;;;;;2.75;1.00;;;17.50;99.90;;;;;;5138400;27;20240;-83
2023/08/06 06:22:10;;;;;;;5.10;1.48;;;17.50;99.90;;;;;;5133688;27;20216;-83
2023/08/06 06:24:43;;;;;;;3.00;1.10;;;17.50;99.90;;;;;;5135854;27;20224;-83
2023/08/06 06:27:14;;;;;;;3.15;1.20;;;17.40;99.90;;;;;;5152723;27;20185;-83
2023/08/06 06:29:45;;;;;;;4.00;1.02;;;17.50;99.90;;;;;;5146887;27;20201;-83
2023/08/06 06:32:15;;;;;;;2.80;1.10;;;17.50;99.90;;;;;;5152514;27;20189;-82
2023/08/06 06:34:47;;;;;;;3.30;0.90;;;17.50;99.90;;;;;;5138161;27;20277;-85
2023/08/06 06:37:19;;;;;;;3.28;1.20;;;17.40;99.90;;;;;;5132677;27;20197;-85
2023/08/06 06:39:52;;;;;;;3.65;1.38;;;17.40;99.90;;;;;;5133581;27;20541;-84
2023/08/06 06:42:24;;;;;;;5.85;1.80;;;17.50;99.90;;;;;;5133578;27;20187;-81
2023/08/06 06:44:55;;;;;;;4.05;1.00;;;17.50;99.90;;;;;;5138456;27;20220;-84
2023/08/06 06:47:26;;;;;;;2.70;0.90;;;17.50;99.90;;;;;;5150940;27;20209;-82
2023/08/06 06:49:57;;;;;;;4.43;1.10;;;17.60;99.90;;;;;;5152990;27;20198;-83
2023/08/06 06:52:27;;;;;;;3.33;1.02;;;17.60;99.90;;;;;;5154959;27;20272;-83
2023/08/06 06:55:00;;;;;;;1.13;0.75;;;17.60;99.90;;;;;;5149356;27;20194;-84
2023/08/06 06:57:31;;;;;;;2.97;0.98;;;17.70;99.90;;;;;;5133458;27;20685;-83
2023/08/06 07:00:03;;;;;;;2.70;0.80;;;17.60;99.90;;;;;;5117476;27;20198;-84
2023/08/06 07:02:34;;;;;;;2.22;0.70;;;17.60;99.90;;;;;;5140011;27;20284;-84
2023/08/06 07:05:15;;;;;;;2.67;1.00;;;17.60;99.90;;;;;;5149439;27;20209;-83
2023/08/06 07:07:48;;;;;;;4.57;1.08;;;17.60;99.90;;;;;;5145364;27;20216;-84
2023/08/06 07:10:21;;;;;;;3.03;1.08;;;17.50;99.90;;;;;;5133618;28;20198;-85
2023/08/06 07:12:52;;;;;;;2.50;0.90;;;17.40;99.90;;;;;;5133367;27;20198;-85
2023/08/06 07:15:24;;;;;;;5.10;1.30;;;17.40;99.90;;;;;;5133014;27;20225;-83
2023/08/06 07:17:55;;;;;;;4.32;1.45;;;17.40;99.90;;;;;;5139051;27;20232;-84
2023/08/06 07:20:29;;;;;;;4.82;2.45;;;17.30;99.90;;;;;;5158874;27;20264;-84
2023/08/06 07:23:00;;;;;;;4.30;2.25;;;17.30;99.90;;;;;;5151269;27;20214;-83
2023/08/06 07:25:32;;;;;;;3.78;1.30;;;17.20;99.90;;;;;;5139656;27;20248;-85
2023/08/06 07:28:04;;;;;;;3.30;1.02;;;17.20;99.90;;;;;;5142545;27;20709;-83
2023/08/06 07:30:35;;;;;;;2.05;1.10;;;17.10;99.90;;;;;;5148635;27;20794;-84
2023/08/06 07:33:06;;;;;;;3.35;1.20;;;17.20;99.90;;;;;;5139468;27;20223;-84
2023/08/06 07:35:37;;;;;;;2.65;1.00;;;17.20;99.90;;;;;;5136960;27;20201;-85
2023/08/06 07:38:09;;;;;;;4.25;1.10;;;17.20;99.90;;;;;;5138453;27;20722;-85
2023/08/06 07:40:44;;;;;;;4.18;1.15;;;17.20;99.90;;;;;;5138423;27;20209;-85
2023/08/06 07:43:15;;;;;;;2.00;1.15;;;17.10;99.90;;;;;;5144127;27;20208;-84
2023/08/06 07:45:48;;;;;;;4.47;1.30;;;17.10;99.90;;;;;;5149032;27;20217;-86
2023/08/06 07:48:19;;;;;;;4.30;1.08;;;17.10;99.90;;;;;;5148019;27;20193;-85
2023/08/06 07:50:53;;;;;;;4.05;1.20;;;17.00;99.90;;;;;;5137970;27;20190;-84
2023/08/06 07:53:26;;;;;;;2.75;1.50;;;17.00;99.90;;;;;;5138425;27;20272;-84
2023/08/06 07:56:01;;;;;;;3.92;1.30;;;17.00;99.90;;;;;;5139394;27;20712;-85
2023/08/06 07:58:35;;;;;;;4.03;1.27;;;17.00;99.90;;;;;;5139419;27;20254;-83
2023/08/06 08:01:09;;;;;;;4.05;1.85;;;17.00;99.90;;;;;;5147407;27;20243;-85
2023/08/06 08:03:45;;;;;;;4.47;1.50;;;16.90;99.90;;;;;;5147275;27;20194;-84
2023/08/06 08:06:16;;;;;;;4.53;1.67;;;16.90;99.90;;;;;;5145411;27;20562;-86
2023/08/06 08:08:47;;;;;;;4.85;2.35;;;16.80;99.90;;;;;;5149162;27;20216;-84
2023/08/06 08:11:20;;;;;;;4.22;1.85;;;16.90;99.90;;;;;;5156389;27;20238;-85
2023/08/06 08:13:51;;;;;;;2.55;1.55;;;16.90;99.90;;;;;;5156181;27;20193;-84
2023/08/06 08:16:22;;;;;;;3.95;1.67;;;16.80;99.90;;;;;;5142453;27;20197;-85
2023/08/06 08:18:52;;;;;;;4.28;1.65;;;16.80;99.90;;;;;;5142758;27;20225;-86
2023/08/06 08:21:24;;;;;;;3.50;1.70;;;16.80;99.90;;;;;;5156541;27;20220;-84
2023/08/06 08:23:54;;;;;;;3.17;2.03;;;16.70;99.90;;;;;;5156796;27;20238;-85
2023/08/06 08:26:27;;;;;;;3.05;1.40;;;16.80;99.90;;;;;;5155089;27;20232;-85
2023/08/06 08:29:07;;;;;;;3.38;1.77;;;16.70;99.90;;;;;;5147618;27;20675;-86
2023/08/06 08:31:43;;;;;;;5.07;1.77;;;16.80;99.90;;;;;;5146005;27;20201;-85
2023/08/06 08:34:14;;;;;;;3.33;1.80;;;16.80;99.90;;;;;;5140544;27;20193;-85
2023/08/06 08:36:47;;;;;;;4.43;1.85;;;16.80;99.90;;;;;;5155526;27;20196;-86
2023/08/06 08:39:18;;;;;;;3.53;1.73;;;16.80;99.90;;;;;;5159827;27;20222;-84
2023/08/06 08:41:51;;;;;;;3.80;1.95;;;16.80;99.90;;;;;;5162392;27;20193;-85
2023/08/06 08:44:29;;;;;;;6.55;2.05;;;16.80;99.90;;;;;;5162687;27;20257;-85
2023/08/06 08:47:00;;;;;;;4.40;1.60;;;16.70;99.90;;;;;;5148600;27;20680;-84
2023/08/06 08:49:33;;;;;;;3.80;1.70;;;16.70;99.90;;;;;;5136203;27;20200;-84
2023/08/06 08:52:07;;;;;;;3.40;1.88;;;16.70;99.90;;;;;;5135924;27;20190;-84
2023/08/06 08:54:39;;;;;;;4.43;1.90;;;16.70;99.90;;;;;;5135855;27;20198;-85
2023/08/06 08:57:12;;;;;;;4.78;2.03;;;16.70;99.90;;;;;;5136484;27;20606;-85
2023/08/06 08:59:43;;;;;;;4.45;1.92;;;16.60;99.90;;;;;;5135519;27;20220;-86
2023/08/06 09:02:17;;;;;;;8.65;3.10;;;16.70;99.90;;;;;;5137047;27;20661;-85
2023/08/06 09:04:49;;;;;;;10.10;3.58;;;16.60;99.90;;;;;;5155036;27;20567;-86
2023/08/06 09:07:23;;;;;;;9.20;3.13;;;16.60;99.90;;;;;;5143557;27;20229;-86
2023/08/06 09:09:54;;;;;;;6.43;2.80;;;16.60;99.90;;;;;;5141546;27;20194;-86
2023/08/06 09:12:28;;;;;;;4.50;2.30;;;16.60;99.90;;;;;;5137676;27;20190;-85
2023/08/06 09:14:59;;;;;;;6.25;3.08;;;16.60;99.90;;;;;;5142509;27;20186;-86
2023/08/06 09:17:29;;;;;;;12.35;5.70;;;16.60;99.90;;;;;;5164390;27;20278;-86
2023/08/06 09:20:00;;;;;;;15.23;8.65;;;16.60;99.90;;;;;;5176010;27;20183;-85
2023/08/06 09:22:37;;;;;;;8.35;4.40;;;16.60;99.90;;;;;;5176405;27;20209;-86
2023/08/06 09:25:10;;;;;;;5.55;2.63;;;16.60;99.90;;;;;;5157038;27;20174;-85
2023/08/06 09:27:48;;;;;;;4.30;2.28;;;16.60;99.90;;;;;;5157648;27;20181;-84
2023/08/06 09:30:33;;;;;;;4.97;2.08;;;16.60;99.90;;;;;;5167174;27;20189;-84
2023/08/06 09:33:04;;;;;;;4.22;2.03;;;16.70;99.90;;;;;;5159555;27;20194;-84
2023/08/06 09:35:35;;;;;;;4.72;1.90;;;16.70;99.90;;;;;;5159297;27;20186;-86
2023/08/06 09:38:16;;;;;;;3.42;2.10;;;16.60;99.90;;;;;;5153820;27;20224;-87
2023/08/06 09:40:46;;;;;;;6.38;2.20;;;16.60;99.90;;;;;;5138085;27;20288;-85
2023/08/06 09:43:21;;;;;;;3.80;2.00;;;16.60;99.90;;;;;;5142061;27;20281;-85
2023/08/06 09:45:52;;;;;;;4.40;1.95;;;16.60;99.90;;;;;;5145705;27;20272;-86
2023/08/06 09:48:27;;;;;;;4.63;1.92;;;16.60;99.90;;;;;;5144704;27;20276;-87
2023/08/06 09:50:59;;;;;;;4.85;2.13;;;16.60;99.90;;;;;;5139778;27;20199;-86
2023/08/06 09:53:30;;;;;;;5.88;2.65;;;16.60;99.90;;;;;;5138967;27;20194;-85
2023/08/06 09:56:01;;;;;;;7.22;3.80;;;16.60;99.90;;;;;;5145882;27;20219;-86
2023/08/06 09:58:35;;;;;;;15.93;9.20;;;16.60;99.90;;;;;;5152244;27;20193;-85
2023/08/06 10:01:06;;;;;;;20.00;8.95;;;16.60;99.90;;;;;;5151824;27;20192;-85
2023/08/06 10:03:39;;;;;;;11.15;5.53;;;16.60;99.90;;;;;;5135714;27;20181;-84
2023/08/06 10:06:10;;;;;;;14.25;5.28;;;16.60;99.90;;;;;;5135434;27;20226;-86
2023/08/06 10:08:42;;;;;;;10.40;4.90;;;16.50;99.90;;;;;;5138312;27;20205;-86
2023/08/06 10:11:14;;;;;;;10.63;5.30;;;16.50;99.90;;;;;;5148578;27;20185;-86
2023/08/06 10:13:48;;;;;;;11.82;4.10;;;16.50;99.90;;;;;;5138411;27;20227;-86
2023/08/06 10:16:20;;;;;;;6.07;3.10;;;16.50;99.90;;;;;;5135163;27;20196;-87
2023/08/06 10:18:52;;;;;;;5.90;2.75;;;16.50;99.90;;;;;;5133162;27;20229;-86
2023/08/06 10:21:30;;;;;;;5.38;2.30;;;16.50;99.90;;;;;;5139565;27;20216;-87
2023/08/06 10:24:01;;;;;;;5.47;2.15;;;16.50;99.90;;;;;;5140674;27;20194;-86
2023/08/06 10:26:32;;;;;;;2.83;1.55;;;16.40;99.90;;;;;;5133147;27;20222;-86
2023/08/06 10:29:28;;;;;;;2.72;1.65;;;16.40;99.90;;;;;;5139313;27;20201;-86
2023/08/06 10:32:02;;;;;;;4.60;1.80;;;16.40;99.90;;;;;;5137628;27;20198;-86
2023/08/06 10:34:57;;;;;;;4.07;2.00;;;16.50;99.90;;;;;;5135789;27;20260;-85
2023/08/06 10:37:38;;;;;;;4.32;2.00;;;16.50;99.90;;;;;;5141308;27;20217;-86
2023/08/06 10:40:11;;;;;;;2.67;1.92;;;16.50;99.90;;;;;;5139984;27;20613;-85
2023/08/06 10:42:44;;;;;;;4.55;2.50;;;16.50;99.90;;;;;;5145953;27;20202;-84
2023/08/06 10:45:32;;;;;;;3.80;2.00;;;16.50;99.90;;;;;;5133927;27;20225;-87
2023/08/06 10:48:03;;;;;;;4.20;1.98;;;16.50;99.90;;;;;;5154683;27;20708;-84
2023/08/06 10:50:34;;;;;;;4.75;2.13;;;16.50;99.90;;;;;;5149304;27;20208;-86
2023/08/06 10:53:08;;;;;;;2.92;1.80;;;16.50;99.90;;;;;;5154825;27;20219;-85
2023/08/06 10:55:40;;;;;;;6.38;1.90;;;16.40;99.90;;;;;;5146038;27;20562;-86
2023/08/06 10:58:12;;;;;;;5.50;1.90;;;16.40;99.90;;;;;;5143826;27;20193;-84
2023/08/06 11:00:45;;;;;;;5.97;2.53;;;16.40;99.90;;;;;;5156653;27;20636;-86
2023/08/06 11:03:15;;;;;;;7.07;2.15;;;16.40;99.90;;;;;;5139674;27;20652;-85
2023/08/06 11:05:52;;;;;;;2.47;1.63;;;16.40;99.90;;;;;;5140535;27;20198;-85
2023/08/06 11:08:29;;;;;;;3.60;1.73;;;16.40;99.90;;;;;;5137381;27;20288;-85
2023/08/06 11:11:12;;;;;;;3.03;1.70;;;16.40;99.90;;;;;;5144963;27;20189;-86
2023/08/06 11:13:44;;;;;;;3.65;2.10;;;16.40;99.90;;;;;;5158475;27;20200;-85
2023/08/06 11:16:17;;;;;;;4.57;1.70;;;16.40;99.90;;;;;;5151641;27;20194;-86
2023/08/06 11:18:52;;;;;;;4.53;1.88;;;16.30;99.90;;;;;;5135560;28;20256;-87
2023/08/06 11:21:34;;;;;;;4.82;2.10;;;16.30;99.90;;;;;;5139162;28;20221;-86
2023/08/06 11:24:05;;;;;;;6.40;2.30;;;16.30;99.90;;;;;;5136994;27;20627;-85
2023/08/06 11:26:36;;;;;;;5.65;2.08;;;16.20;99.90;;;;;;5139536;27;20759;-86
2023/08/06 11:29:07;;;;;;;7.28;2.10;;;16.20;99.90;;;;;;5156387;27;20201;-86
2023/08/06 11:31:42;;;;;;;4.78;1.92;;;16.20;99.90;;;;;;5154563;27;20768;-85
2023/08/06 11:34:12;;;;;;;3.10;1.92;;;16.20;99.90;;;;;;5156577;27;20280;-87
2023/08/06 11:36:46;;;;;;;3.30;1.80;;;16.20;99.90;;;;;;5141772;27;20183;-86
2023/08/06 11:39:17;;;;;;;6.65;2.30;;;16.20;99.90;;;;;;5155400;27;20292;-84
2023/08/06 11:41:48;;;;;;;7.15;2.13;;;16.20;99.90;;;;;;5158828;27;20654;-86
2023/08/06 11:44:22;;;;;;;6.15;2.22;;;16.10;99.90;;;;;;5157007;27;20201;-85
2023/08/06 11:47:01;;;;;;;4.13;1.80;;;16.10;99.90;;;;;;5158903;27;20239;-84
2023/08/06 11:49:46;;;;;;;3.55;1.77;;;16.10;99.90;;;;;;5151224;27;20200;-87
2023/08/06 11:52:24;;;;;;;4.63;2.28;;;16.10;99.90;;;;;;5156218;27;20253;-85
2023/08/06 11:55:06;;;;;;;3.25;1.90;;;16.00;99.90;;;;;;5126704;27;20539;-85
2023/08/06 11:57:37;;;;;;;4.22;2.38;;;16.00;99.90;;;;;;5154613;27;20720;-85
2023/08/06 12:00:13;;;;;;;4.05;2.10;;;15.90;99.90;;;;;;5123113;27;20276;-86
2023/08/06 12:02:49;;;;;;;5.72;2.75;;;15.80;99.90;;;;;;5137086;27;20205;-85
2023/08/06 12:05:20;;;;;;;5.65;2.90;;;15.90;99.90;;;;;;5143451;27;20200;-86
2023/08/06 12:07:52;;;;;;;5.88;2.85;;;15.80;99.90;;;;;;5145059;27;20245;-86
2023/08/06 12:10:23;;;;;;;4.65;2.63;;;15.70;99.90;;;;;;5139389;27;20675;-84
2023/08/06 12:12:54;;;;;;;5.45;2.70;;;15.70;99.90;;;;;;5140391;27;20190;-86
2023/08/06 12:15:27;;;;;;;5.03;2.50;;;15.70;99.90;;;;;;5141162;27;20193;-86
2023/08/06 12:18:00;;;;;;;6.70;2.80;;;15.60;99.90;;;;;;5144015;27;20256;-86
2023/08/06 12:20:31;;;;;;;5.95;3.05;;;15.60;99.90;;;;;;5148334;27;20197;-85
2023/08/06 12:23:02;;;;;;;6.03;3.15;;;15.60;99.90;;;;;;5159535;27;20248;-86
2023/08/06 12:25:33;;;;;;;4.53;2.72;;;15.60;99.90;;;;;;5148077;27;20521;-83
2023/08/06 12:28:05;;;;;;;5.05;2.75;;;15.50;99.90;;;;;;5137571;27;20229;-87
2023/08/06 12:30:36;;;;;;;4.50;2.80;;;15.50;99.90;;;;;;5136804;27;20197;-86
2023/08/06 12:33:09;;;;;;;4.20;2.35;;;15.50;99.90;;;;;;5139717;27;20290;-87
2023/08/06 12:35:40;;;;;;;4.15;2.50;;;15.50;99.90;;;;;;5149975;27;20208;-86
2023/08/06 12:38:13;;;;;;;4.90;2.60;;;15.50;99.90;;;;;;5140207;27;20198;-85
2023/08/06 12:40:45;;;;;;;5.55;2.80;;;15.40;99.90;;;;;;5139729;27;20682;-87
2023/08/06 12:43:15;;;;;;;4.53;2.47;;;15.40;99.90;;;;;;5156490;27;20573;-85
2023/08/06 12:45:46;;;;;;;3.72;2.63;;;15.40;99.90;;;;;;5156523;27;20201;-85
2023/08/06 12:48:19;;;;;;;5.90;2.63;;;15.40;99.90;;;;;;5142647;27;20228;-86
2023/08/06 12:50:50;;;;;;;5.70;3.15;;;15.40;99.90;;;;;;5150397;27;20566;-86
2023/08/06 12:53:22;;;;;;;4.30;2.58;;;15.30;99.90;;;;;;5153309;27;20204;-86
2023/08/06 12:55:54;;;;;;;5.88;3.10;;;15.30;99.90;;;;;;5140744;27;20190;-87
2023/08/06 12:58:25;;;;;;;8.02;3.58;;;15.30;99.90;;;;;;5146350;27;20189;-86
2023/08/06 13:00:56;;;;;;;5.50;3.58;;;15.20;99.90;;;;;;5156723;27;20628;-87
2023/08/06 13:03:28;;;;;;;4.72;3.58;;;15.10;99.90;;;;;;5154792;27;20215;-86
2023/08/06 13:06:00;;;;;;;7.97;3.65;;;15.10;99.90;;;;;;5154476;27;20207;-87
2023/08/06 13:08:30;;;;;;;5.97;3.70;;;15.10;99.90;;;;;;5152554;27;20217;-87
2023/08/06 13:11:01;;;;;;;5.40;3.47;;;15.10;99.90;;;;;;5143358;27;20190;-85
2023/08/06 13:13:32;;;;;;;5.13;3.78;;;15.10;99.90;;;;;;5154629;27;20632;-85